sensor_id;sensor_type;location;lat;lon;timestamp;pressure;altitude;pressure_sealevel;temperature
66113;BMP280;52893;52.870;5.822;2023-10-31T00:01:56;99233.41;;;10.97
66113;BMP280;52893;52.870;5.822;2023-10-31T00:04:25;99244.47;;;11.04
66113;BMP280;52893;52.870;5.822;2023-10-31T00:06:52;99238.88;;;10.97
66113;BMP280;52893;52.870;5.822;2023-10-31T00:09:19;99241.25;;;10.99
66113;BMP280;52893;52.870;5.822;2023-10-31T00:11:47;99237.56;;;10.88
66113;BMP280;52893;52.870;5.822;2023-10-31T00:14:14;99250.13;;;10.92
66113;BMP280;52893;52.870;5.822;2023-10-31T00:16:41;99243.81;;;10.88
66113;BMP280;52893;52.870;5.822;2023-10-31T00:19:08;99265.66;;;10.88
66113;BMP280;52893;52.870;5.822;2023-10-31T00:21:37;99246.44;;;10.81
66113;BMP280;52893;52.870;5.822;2023-10-31T00:24:05;99263.31;;;10.90
66113;BMP280;52893;52.870;5.822;2023-10-31T00:26:32;99267.22;;;10.89
66113;BMP280;52893;52.870;5.822;2023-10-31T00:28:59;99264.06;;;10.87
66113;BMP280;52893;52.870;5.822;2023-10-31T00:31:26;99260.97;;;10.89
66113;BMP280;52893;52.870;5.822;2023-10-31T00:33:54;99264.50;;;10.89
66113;BMP280;52893;52.870;5.822;2023-10-31T00:36:21;99249.16;;;10.81
66113;BMP280;52893;52.870;5.822;2023-10-31T00:38:50;99258.25;;;10.89
66113;BMP280;52893;52.870;5.822;2023-10-31T00:41:17;99244.53;;;10.85
66113;BMP280;52893;52.870;5.822;2023-10-31T00:43:44;99251.63;;;10.90
66113;BMP280;52893;52.870;5.822;2023-10-31T00:46:11;99245.41;;;10.89
66113;BMP280;52893;52.870;5.822;2023-10-31T00:48:39;99238.41;;;10.92
66113;BMP280;52893;52.870;5.822;2023-10-31T00:51:07;99240.34;;;10.91
66113;BMP280;52893;52.870;5.822;2023-10-31T00:53:34;99235.28;;;10.93
66113;BMP280;52893;52.870;5.822;2023-10-31T00:56:03;99248.34;;;11.03
66113;BMP280;52893;52.870;5.822;2023-10-31T00:58:31;99238.59;;;11.02
66113;BMP280;52893;52.870;5.822;2023-10-31T01:00:58;99243.72;;;11.07
66113;BMP280;52893;52.870;5.822;2023-10-31T01:03:25;99234.75;;;11.07
66113;BMP280;52893;52.870;5.822;2023-10-31T01:05:53;99232.69;;;11.00
66113;BMP280;52893;52.870;5.822;2023-10-31T01:08:20;99246.00;;;11.05
66113;BMP280;52893;52.870;5.822;2023-10-31T01:10:48;99250.75;;;11.08
66113;BMP280;52893;52.870;5.822;2023-10-31T01:13:17;99243.25;;;11.02
66113;BMP280;52893;52.870;5.822;2023-10-31T01:15:44;99237.72;;;10.98
66113;BMP280;52893;52.870;5.822;2023-10-31T01:18:12;99230.22;;;10.92
66113;BMP280;52893;52.870;5.822;2023-10-31T01:20:39;99232.25;;;10.98
66113;BMP280;52893;52.870;5.822;2023-10-31T01:23:06;99198.38;;;10.77
66113;BMP280;52893;52.870;5.822;2023-10-31T01:25:34;99215.72;;;10.88
66113;BMP280;52893;52.870;5.822;2023-10-31T01:28:01;99246.34;;;11.00
66113;BMP280;52893;52.870;5.822;2023-10-31T01:30:29;99241.19;;;10.95
66113;BMP280;52893;52.870;5.822;2023-10-31T01:32:56;99248.63;;;10.98
66113;BMP280;52893;52.870;5.822;2023-10-31T01:35:24;99254.53;;;11.00
66113;BMP280;52893;52.870;5.822;2023-10-31T01:37:51;99247.50;;;10.99
66113;BMP280;52893;52.870;5.822;2023-10-31T01:40:18;99259.66;;;11.02
66113;BMP280;52893;52.870;5.822;2023-10-31T01:42:45;99262.78;;;11.04
66113;BMP280;52893;52.870;5.822;2023-10-31T01:45:13;99255.38;;;11.04
66113;BMP280;52893;52.870;5.822;2023-10-31T01:47:43;99252.25;;;11.06
66113;BMP280;52893;52.870;5.822;2023-10-31T01:50:11;99257.38;;;11.07
66113;BMP280;52893;52.870;5.822;2023-10-31T01:52:39;99254.28;;;11.09
66113;BMP280;52893;52.870;5.822;2023-10-31T01:55:07;99262.91;;;11.11
66113;BMP280;52893;52.870;5.822;2023-10-31T01:57:34;99268.38;;;11.14
66113;BMP280;52893;52.870;5.822;2023-10-31T02:00:02;99278.59;;;11.18
66113;BMP280;52893;52.870;5.822;2023-10-31T02:02:41;99270.06;;;11.19
66113;BMP280;52893;52.870;5.822;2023-10-31T02:05:09;99272.44;;;11.21
66113;BMP280;52893;52.870;5.822;2023-10-31T02:07:36;99281.00;;;11.23
66113;BMP280;52893;52.870;5.822;2023-10-31T02:10:05;99259.00;;;11.12
66113;BMP280;52893;52.870;5.822;2023-10-31T02:12:41;99284.53;;;11.23
66113;BMP280;52893;52.870;5.822;2023-10-31T02:15:10;99281.44;;;11.25
66113;BMP280;52893;52.870;5.822;2023-10-31T02:17:37;99287.69;;;11.25
66113;BMP280;52893;52.870;5.822;2023-10-31T02:20:07;99284.06;;;11.18
66113;BMP280;52893;52.870;5.822;2023-10-31T02:22:36;99296.69;;;11.26
66113;BMP280;52893;52.870;5.822;2023-10-31T02:25:15;99278.59;;;11.18
66113;BMP280;52893;52.870;5.822;2023-10-31T02:27:43;99290.47;;;11.29
66113;BMP280;52893;52.870;5.822;2023-10-31T02:30:11;99295.94;;;11.29
66113;BMP280;52893;52.870;5.822;2023-10-31T02:32:38;99293.59;;;11.27
66113;BMP280;52893;52.870;5.822;2023-10-31T02:35:06;99297.13;;;11.28
66113;BMP280;52893;52.870;5.822;2023-10-31T02:37:35;99261.97;;;11.03
66113;BMP280;52893;52.870;5.822;2023-10-31T02:40:03;99295.44;;;11.20
66113;BMP280;52893;52.870;5.822;2023-10-31T02:42:30;99288.41;;;11.22
66113;BMP280;52893;52.870;5.822;2023-10-31T02:44:58;99265.09;;;11.02
66113;BMP280;52893;52.870;5.822;2023-10-31T02:47:25;99304.31;;;11.16
66113;BMP280;52893;52.870;5.822;2023-10-31T02:49:52;99303.53;;;11.16
66113;BMP280;52893;52.870;5.822;2023-10-31T02:52:19;99294.75;;;11.03
66113;BMP280;52893;52.870;5.822;2023-10-31T02:54:48;99299.84;;;11.05
66113;BMP280;52893;52.870;5.822;2023-10-31T02:57:16;99296.28;;;11.01
66113;BMP280;52893;52.870;5.822;2023-10-31T02:59:44;99313.56;;;11.08
66113;BMP280;52893;52.870;5.822;2023-10-31T03:02:12;99308.81;;;11.05
66113;BMP280;52893;52.870;5.822;2023-10-31T03:04:39;99313.56;;;11.08
66113;BMP280;52893;52.870;5.822;2023-10-31T03:07:07;99309.56;;;11.02
66113;BMP280;52893;52.870;5.822;2023-10-31T03:09:34;99312.31;;;11.06
66113;BMP280;52893;52.870;5.822;2023-10-31T03:12:05;99318.59;;;11.06
66113;BMP280;52893;52.870;5.822;2023-10-31T03:14:32;99281.94;;;10.85
66113;BMP280;52893;52.870;5.822;2023-10-31T03:17:00;99299.66;;;10.94
66113;BMP280;52893;52.870;5.822;2023-10-31T03:19:27;99326.38;;;11.04
66113;BMP280;52893;52.870;5.822;2023-10-31T03:21:54;99318.16;;;11.04
66113;BMP280;52893;52.870;5.822;2023-10-31T03:24:21;99323.25;;;11.06
66113;BMP280;52893;52.870;5.822;2023-10-31T03:26:49;99324.44;;;11.05
66113;BMP280;52893;52.870;5.822;2023-10-31T03:29:17;99327.91;;;11.05
66113;BMP280;52893;52.870;5.822;2023-10-31T03:31:45;99332.22;;;11.06
66113;BMP280;52893;52.870;5.822;2023-10-31T03:34:12;99330.28;;;11.07
66113;BMP280;52893;52.870;5.822;2023-10-31T03:36:40;99330.66;;;11.05
66113;BMP280;52893;52.870;5.822;2023-10-31T03:39:07;99306.22;;;10.90
66113;BMP280;52893;52.870;5.822;2023-10-31T03:41:35;99333.81;;;11.07
66113;BMP280;52893;52.870;5.822;2023-10-31T03:44:02;99327.88;;;11.02
66113;BMP280;52893;52.870;5.822;2023-10-31T03:46:31;99305.06;;;10.91
66113;BMP280;52893;52.870;5.822;2023-10-31T03:48:58;99331.53;;;11.09
66113;BMP280;52893;52.870;5.822;2023-10-31T03:51:25;99336.97;;;11.09
66113;BMP280;52893;52.870;5.822;2023-10-31T03:53:53;99347.91;;;11.09
66113;BMP280;52893;52.870;5.822;2023-10-31T03:56:20;99351.00;;;11.08
66113;BMP280;52893;52.870;5.822;2023-10-31T03:58:47;99358.72;;;11.02
66113;BMP280;52893;52.870;5.822;2023-10-31T04:01:14;99363.84;;;11.07
66113;BMP280;52893;52.870;5.822;2023-10-31T04:03:43;99360.56;;;10.98
66113;BMP280;52893;52.870;5.822;2023-10-31T04:06:12;99366.94;;;11.06
66113;BMP280;52893;52.870;5.822;2023-10-31T04:08:40;99368.88;;;11.05
66113;BMP280;52893;52.870;5.822;2023-10-31T04:11:07;99359.13;;;11.04
66113;BMP280;52893;52.870;5.822;2023-10-31T04:13:34;99357.13;;;11.01
66113;BMP280;52893;52.870;5.822;2023-10-31T04:16:01;99345.41;;;11.01
66113;BMP280;52893;52.870;5.822;2023-10-31T04:18:29;99354.81;;;11.03
66113;BMP280;52893;52.870;5.822;2023-10-31T04:20:57;99356.75;;;11.03
66113;BMP280;52893;52.870;5.822;2023-10-31T04:23:24;99366.13;;;11.05
66113;BMP280;52893;52.870;5.822;2023-10-31T04:25:52;99354.47;;;11.05
66113;BMP280;52893;52.870;5.822;2023-10-31T04:28:19;99358.75;;;11.06
66113;BMP280;52893;52.870;5.822;2023-10-31T04:30:46;99367.31;;;11.04
66113;BMP280;52893;52.870;5.822;2023-10-31T04:33:13;99357.13;;;11.01
66113;BMP280;52893;52.870;5.822;2023-10-31T04:35:41;99365.31;;;11.01
66113;BMP280;52893;52.870;5.822;2023-10-31T04:38:09;99367.25;;;11.01
66113;BMP280;52893;52.870;5.822;2023-10-31T04:40:37;99375.09;;;11.02
66113;BMP280;52893;52.870;5.822;2023-10-31T04:43:04;99382.84;;;11.00
66113;BMP280;52893;52.870;5.822;2023-10-31T04:45:31;99331.13;;;10.65
66113;BMP280;52893;52.870;5.822;2023-10-31T04:47:58;99353.69;;;10.85
66113;BMP280;52893;52.870;5.822;2023-10-31T04:50:26;99381.19;;;10.96
66113;BMP280;52893;52.870;5.822;2023-10-31T04:52:53;99380.06;;;10.97
66113;BMP280;52893;52.870;5.822;2023-10-31T04:55:21;99392.91;;;10.96
66113;BMP280;52893;52.870;5.822;2023-10-31T04:57:49;99385.88;;;10.95
66113;BMP280;52893;52.870;5.822;2023-10-31T05:00:17;99380.34;;;10.92
66113;BMP280;52893;52.870;5.822;2023-10-31T05:02:44;99384.22;;;10.91
66113;BMP280;52893;52.870;5.822;2023-10-31T05:05:11;99350.72;;;10.71
66113;BMP280;52893;52.870;5.822;2023-10-31T05:07:39;99386.16;;;10.90
66113;BMP280;52893;52.870;5.822;2023-10-31T05:10:07;99386.16;;;10.90
66113;BMP280;52893;52.870;5.822;2023-10-31T05:12:36;99384.59;;;10.89
66113;BMP280;52893;52.870;5.822;2023-10-31T05:15:04;99390.31;;;10.84
66113;BMP280;52893;52.870;5.822;2023-10-31T05:17:31;99381.78;;;10.86
66113;BMP280;52893;52.870;5.822;2023-10-31T05:19:58;99380.97;;;10.82
66113;BMP280;52893;52.870;5.822;2023-10-31T05:22:25;99387.19;;;10.82
66113;BMP280;52893;52.870;5.822;2023-10-31T05:24:53;99364.84;;;10.77
66113;BMP280;52893;52.870;5.822;2023-10-31T05:27:20;99391.56;;;10.87
66113;BMP280;52893;52.870;5.822;2023-10-31T05:29:49;99388.03;;;10.86
66113;BMP280;52893;52.870;5.822;2023-10-31T05:32:16;99382.56;;;10.86
66113;BMP280;52893;52.870;5.822;2023-10-31T05:34:44;99392.47;;;10.94
66113;BMP280;52893;52.870;5.822;2023-10-31T05:37:11;99398.38;;;10.96
66113;BMP280;52893;52.870;5.822;2023-10-31T05:39:38;99387.75;;;10.91
66113;BMP280;52893;52.870;5.822;2023-10-31T05:42:05;99392.53;;;10.98
66113;BMP280;52893;52.870;5.822;2023-10-31T05:44:33;99402.41;;;11.02
66113;BMP280;52893;52.870;5.822;2023-10-31T05:47:01;99403.59;;;11.05
66113;BMP280;52893;52.870;5.822;2023-10-31T05:49:29;99391.50;;;11.06
66113;BMP280;52893;52.870;5.822;2023-10-31T05:51:57;99395.47;;;11.08
66113;BMP280;52893;52.870;5.822;2023-10-31T05:54:24;99397.06;;;11.09
66113;BMP280;52893;52.870;5.822;2023-10-31T05:56:52;99409.19;;;11.12
66113;BMP280;52893;52.870;5.822;2023-10-31T05:59:19;99408.81;;;11.13
66113;BMP280;52893;52.870;5.822;2023-10-31T06:01:46;99406.88;;;11.14
66113;BMP280;52893;52.870;5.822;2023-10-31T06:04:17;99364.63;;;10.85
66113;BMP280;52893;52.870;5.822;2023-10-31T06:06:44;99414.44;;;11.21
66113;BMP280;52893;52.870;5.822;2023-10-31T06:09:11;99424.59;;;11.24
66113;BMP280;52893;52.870;5.822;2023-10-31T06:11:40;99425.38;;;11.21
66113;BMP280;52893;52.870;5.822;2023-10-31T06:14:08;99403.22;;;11.06
66113;BMP280;52893;52.870;5.822;2023-10-31T06:16:39;99426.97;;;11.25
66113;BMP280;52893;52.870;5.822;2023-10-31T06:19:07;99435.16;;;11.25
66113;BMP280;52893;52.870;5.822;2023-10-31T06:21:35;99443.47;;;11.32
66113;BMP280;52893;52.870;5.822;2023-10-31T06:24:04;99441.53;;;11.33
66113;BMP280;52893;52.870;5.822;2023-10-31T06:26:31;99452.53;;;11.36
66113;BMP280;52893;52.870;5.822;2023-10-31T06:28:58;99459.22;;;11.39
66113;BMP280;52893;52.870;5.822;2023-10-31T06:31:26;99463.94;;;11.42
66113;BMP280;52893;52.870;5.822;2023-10-31T06:33:53;99469.41;;;11.42
66113;BMP280;52893;52.870;5.822;2023-10-31T06:36:20;99468.31;;;11.46
66113;BMP280;52893;52.870;5.822;2023-10-31T06:38:49;99474.47;;;11.40
66113;BMP280;52893;52.870;5.822;2023-10-31T06:41:16;99407.84;;;11.02
66113;BMP280;52893;52.870;5.822;2023-10-31T06:43:43;99477.19;;;11.40
66113;BMP280;52893;52.870;5.822;2023-10-31T06:46:10;99474.47;;;11.40
66113;BMP280;52893;52.870;5.822;2023-10-31T06:48:40;99481.44;;;11.37
66113;BMP280;52893;52.870;5.822;2023-10-31T06:51:07;99465.09;;;11.18
66113;BMP280;52893;52.870;5.822;2023-10-31T06:53:35;99495.81;;;11.34
66113;BMP280;52893;52.870;5.822;2023-10-31T06:56:04;99464.06;;;11.07
66113;BMP280;52893;52.870;5.822;2023-10-31T06:58:31;99508.63;;;11.30
66113;BMP280;52893;52.870;5.822;2023-10-31T07:00:58;99508.97;;;11.29
66113;BMP280;52893;52.870;5.822;2023-10-31T07:03:26;99506.25;;;11.29
66113;BMP280;52893;52.870;5.822;2023-10-31T07:05:53;99515.63;;;11.28
66113;BMP280;52893;52.870;5.822;2023-10-31T07:08:22;99522.22;;;11.27
66113;BMP280;52893;52.870;5.822;2023-10-31T07:10:49;99527.69;;;11.27
66113;BMP280;52893;52.870;5.822;2023-10-31T07:13:17;99533.16;;;11.27
66113;BMP280;52893;52.870;5.822;2023-10-31T07:15:45;99531.56;;;11.26
66113;BMP280;52893;52.870;5.822;2023-10-31T07:18:12;99540.88;;;11.25
66113;BMP280;52893;52.870;5.822;2023-10-31T07:20:40;99536.22;;;11.25
66113;BMP280;52893;52.870;5.822;2023-10-31T07:23:07;99537.03;;;11.26
66113;BMP280;52893;52.870;5.822;2023-10-31T07:25:35;99535.44;;;11.25
66113;BMP280;52893;52.870;5.822;2023-10-31T07:28:02;99540.53;;;11.26
66113;BMP280;52893;52.870;5.822;2023-10-31T07:30:31;99551.13;;;11.28
66113;BMP280;52893;52.870;5.822;2023-10-31T07:32:58;99545.28;;;11.29
66113;BMP280;52893;52.870;5.822;2023-10-31T07:35:25;99551.16;;;11.31
66113;BMP280;52893;52.870;5.822;2023-10-31T07:37:52;99549.66;;;11.34
66113;BMP280;52893;52.870;5.822;2023-10-31T07:40:19;99563.03;;;11.39
66113;BMP280;52893;52.870;5.822;2023-10-31T07:42:47;99561.16;;;11.43
66113;BMP280;52893;52.870;5.822;2023-10-31T07:45:14;99560.09;;;11.51
66113;BMP280;52893;52.870;5.822;2023-10-31T07:47:43;99563.00;;;11.58
66113;BMP280;52893;52.870;5.822;2023-10-31T07:50:10;99557.81;;;11.53
66113;BMP280;52893;52.870;5.822;2023-10-31T07:52:39;99577.44;;;11.58
66113;BMP280;52893;52.870;5.822;2023-10-31T07:55:06;99582.84;;;11.55
66113;BMP280;52893;52.870;5.822;2023-10-31T07:57:33;99586.03;;;11.57
66113;BMP280;52893;52.870;5.822;2023-10-31T08:00:00;99589.25;;;11.62
66113;BMP280;52893;52.870;5.822;2023-10-31T08:02:38;99591.47;;;11.76
66113;BMP280;52893;52.870;5.822;2023-10-31T08:05:07;99607.81;;;11.95
66113;BMP280;52893;52.870;5.822;2023-10-31T08:07:35;99601.13;;;12.16
66113;BMP280;52893;52.870;5.822;2023-10-31T08:10:04;99604.22;;;12.37
66113;BMP280;52893;52.870;5.822;2023-10-31T08:12:32;99604.13;;;12.56
66113;BMP280;52893;52.870;5.822;2023-10-31T08:14:59;99612.22;;;12.75
66113;BMP280;52893;52.870;5.822;2023-10-31T08:17:26;99625.69;;;12.87
66113;BMP280;52893;52.870;5.822;2023-10-31T08:19:53;99639.91;;;12.96
66113;BMP280;52893;52.870;5.822;2023-10-31T08:22:22;99654.84;;;13.02
66113;BMP280;52893;52.870;5.822;2023-10-31T08:24:49;99642.50;;;13.16
66113;BMP280;52893;52.870;5.822;2023-10-31T08:27:16;99646.06;;;13.20
66113;BMP280;52893;52.870;5.822;2023-10-31T08:29:43;99677.19;;;13.34
66113;BMP280;52893;52.870;5.822;2023-10-31T08:32:10;99681.22;;;13.44
66113;BMP280;52893;52.870;5.822;2023-10-31T08:34:38;99686.78;;;13.51
66113;BMP280;52893;52.870;5.822;2023-10-31T08:37:05;99705.41;;;13.68
66113;BMP280;52893;52.870;5.822;2023-10-31T08:39:34;99698.13;;;13.83
66113;BMP280;52893;52.870;5.822;2023-10-31T08:42:01;99721.69;;;13.87
66113;BMP280;52893;52.870;5.822;2023-10-31T08:44:28;99700.69;;;14.02
66113;BMP280;52893;52.870;5.822;2023-10-31T08:46:55;99712.53;;;14.13
66113;BMP280;52893;52.870;5.822;2023-10-31T08:49:22;99724.41;;;14.21
66113;BMP280;52893;52.870;5.822;2023-10-31T08:51:49;99740.25;;;14.38
66113;BMP280;52893;52.870;5.822;2023-10-31T08:54:17;99741.91;;;14.49
66113;BMP280;52893;52.870;5.822;2023-10-31T08:56:46;99747.97;;;14.69
66113;BMP280;52893;52.870;5.822;2023-10-31T08:59:13;99787.59;;;14.68
66113;BMP280;52893;52.870;5.822;2023-10-31T09:01:40;99819.66;;;14.61
66113;BMP280;52893;52.870;5.822;2023-10-31T09:04:08;99809.47;;;14.61
66113;BMP280;52893;52.870;5.822;2023-10-31T09:06:35;99811.44;;;14.57
66113;BMP280;52893;52.870;5.822;2023-10-31T09:09:02;99826.75;;;14.58
66113;BMP280;52893;52.870;5.822;2023-10-31T09:11:29;99820.16;;;14.70
66113;BMP280;52893;52.870;5.822;2023-10-31T09:13:58;99831.16;;;14.70
66113;BMP280;52893;52.870;5.822;2023-10-31T09:16:26;99753.50;;;14.29
66113;BMP280;52893;52.870;5.822;2023-10-31T09:18:53;99840.38;;;14.91
66113;BMP280;52893;52.870;5.822;2023-10-31T09:21:20;99853.81;;;15.04
66113;BMP280;52893;52.870;5.822;2023-10-31T09:23:47;99858.63;;;15.14
66113;BMP280;52893;52.870;5.822;2023-10-31T09:26:15;99848.59;;;15.39
66113;BMP280;52893;52.870;5.822;2023-10-31T09:28:43;99863.91;;;15.40
66113;BMP280;52893;52.870;5.822;2023-10-31T09:31:17;99866.91;;;15.21
66113;BMP280;52893;52.870;5.822;2023-10-31T09:33:45;99869.97;;;15.12
66113;BMP280;52893;52.870;5.822;2023-10-31T09:36:13;99864.88;;;15.11
66113;BMP280;52893;52.870;5.822;2023-10-31T09:38:40;99878.34;;;15.23
66113;BMP280;52893;52.870;5.822;2023-10-31T09:41:07;99878.34;;;15.30
66113;BMP280;52893;52.870;5.822;2023-10-31T09:43:35;99856.56;;;15.04
66113;BMP280;52893;52.870;5.822;2023-10-31T09:46:03;99884.00;;;14.96
66113;BMP280;52893;52.870;5.822;2023-10-31T09:48:33;99896.41;;;14.83
66113;BMP280;52893;52.870;5.822;2023-10-31T09:51:02;99892.06;;;14.79
66113;BMP280;52893;52.870;5.822;2023-10-31T09:53:29;99894.72;;;15.12
66113;BMP280;52893;52.870;5.822;2023-10-31T09:55:58;99873.72;;;15.41
66113;BMP280;52893;52.870;5.822;2023-10-31T09:58:25;99912.50;;;15.83
66113;BMP280;52893;52.870;5.822;2023-10-31T10:00:52;99911.84;;;16.08
66113;BMP280;52893;52.870;5.822;2023-10-31T10:03:20;99897.75;;;16.27
66113;BMP280;52893;52.870;5.822;2023-10-31T10:05:48;99913.63;;;16.72
66113;BMP280;52893;52.870;5.822;2023-10-31T10:08:16;99929.38;;;16.89
66113;BMP280;52893;52.870;5.822;2023-10-31T10:10:43;99933.31;;;16.74
66113;BMP280;52893;52.870;5.822;2023-10-31T10:13:11;99908.75;;;16.23
66113;BMP280;52893;52.870;5.822;2023-10-31T10:15:44;99944.09;;;16.11
66113;BMP280;52893;52.870;5.822;2023-10-31T10:18:24;99944.03;;;15.96
66113;BMP280;52893;52.870;5.822;2023-10-31T10:20:57;99958.47;;;15.76
66113;BMP280;52893;52.870;5.822;2023-10-31T10:23:24;99954.75;;;15.50
66113;BMP280;52893;52.870;5.822;2023-10-31T10:25:53;99953.75;;;15.25
66113;BMP280;52893;52.870;5.822;2023-10-31T10:28:20;99942.03;;;15.90
66113;BMP280;52893;52.870;5.822;2023-10-31T10:30:48;99930.06;;;16.37
66113;BMP280;52893;52.870;5.822;2023-10-31T10:33:15;99942.81;;;17.01
66113;BMP280;52893;52.870;5.822;2023-10-31T10:35:43;99949.13;;;17.30
66113;BMP280;52893;52.870;5.822;2023-10-31T10:38:14;99963.22;;;17.85
66113;BMP280;52893;52.870;5.822;2023-10-31T10:40:44;99942.66;;;18.04
66113;BMP280;52893;52.870;5.822;2023-10-31T10:43:13;99964.59;;;18.39
66113;BMP280;52893;52.870;5.822;2023-10-31T10:45:42;99972.00;;;18.56
66113;BMP280;52893;52.870;5.822;2023-10-31T10:48:11;99961.34;;;18.55
66113;BMP280;52893;52.870;5.822;2023-10-31T10:50:43;99966.34;;;18.05
66113;BMP280;52893;52.870;5.822;2023-10-31T10:53:16;99976.66;;;17.69
66113;BMP280;52893;52.870;5.822;2023-10-31T10:55:51;99949.88;;;17.24
66113;BMP280;52893;52.870;5.822;2023-10-31T10:58:26;99957.78;;;17.29
66113;BMP280;52893;52.870;5.822;2023-10-31T11:00:56;99962.81;;;16.56
66113;BMP280;52893;52.870;5.822;2023-10-31T11:03:26;99983.25;;;16.59
66113;BMP280;52893;52.870;5.822;2023-10-31T11:05:53;99985.94;;;16.41
66113;BMP280;52893;52.870;5.822;2023-10-31T11:08:23;99985.81;;;16.13
66113;BMP280;52893;52.870;5.822;2023-10-31T11:10:52;99986.75;;;15.76
66113;BMP280;52893;52.870;5.822;2023-10-31T11:13:20;99985.75;;;15.47
66113;BMP280;52893;52.870;5.822;2023-10-31T11:15:50;99983.97;;;15.22
66113;BMP280;52893;52.870;5.822;2023-10-31T11:18:18;99984.13;;;14.99
66113;BMP280;52893;52.870;5.822;2023-10-31T11:20:46;99965.22;;;14.57
66113;BMP280;52893;52.870;5.822;2023-10-31T11:23:13;99985.25;;;14.61
66113;BMP280;52893;52.870;5.822;2023-10-31T11:25:43;99988.41;;;14.30
66113;BMP280;52893;52.870;5.822;2023-10-31T11:28:11;99987.75;;;14.14
66113;BMP280;52893;52.870;5.822;2023-10-31T11:30:39;99984.63;;;14.12
66113;BMP280;52893;52.870;5.822;2023-10-31T11:33:11;99987.84;;;14.17
66113;BMP280;52893;52.870;5.822;2023-10-31T11:35:39;99980.47;;;14.25
66113;BMP280;52893;52.870;5.822;2023-10-31T11:38:08;99980.25;;;14.37
66113;BMP280;52893;52.870;5.822;2023-10-31T11:40:37;99983.88;;;14.44
66113;BMP280;52893;52.870;5.822;2023-10-31T11:43:06;99994.34;;;14.65
66113;BMP280;52893;52.870;5.822;2023-10-31T11:45:35;99995.75;;;14.85
66113;BMP280;52893;52.870;5.822;2023-10-31T11:48:03;99999.44;;;15.00
66113;BMP280;52893;52.870;5.822;2023-10-31T11:50:32;100011.63;;;15.02
66113;BMP280;52893;52.870;5.822;2023-10-31T11:53:03;100015.97;;;15.04
66113;BMP280;52893;52.870;5.822;2023-10-31T11:55:33;100025.09;;;15.11
66113;BMP280;52893;52.870;5.822;2023-10-31T11:58:19;100024.31;;;15.11
66113;BMP280;52893;52.870;5.822;2023-10-31T12:00:48;99994.25;;;14.91
66113;BMP280;52893;52.870;5.822;2023-10-31T12:03:16;100021.81;;;14.98
66113;BMP280;52893;52.870;5.822;2023-10-31T12:05:54;100021.84;;;15.02
66113;BMP280;52893;52.870;5.822;2023-10-31T12:08:26;100024.22;;;15.07
66113;BMP280;52893;52.870;5.822;2023-10-31T12:10:53;100037.59;;;15.05
66113;BMP280;52893;52.870;5.822;2023-10-31T12:13:30;100027.59;;;14.90
66113;BMP280;52893;52.870;5.822;2023-10-31T12:15:57;100033.88;;;14.90
66113;BMP280;52893;52.870;5.822;2023-10-31T12:18:26;100039.28;;;14.83
66113;BMP280;52893;52.870;5.822;2023-10-31T12:20:54;100030.91;;;14.73
66113;BMP280;52893;52.870;5.822;2023-10-31T12:23:21;100014.66;;;14.57
66113;BMP280;52893;52.870;5.822;2023-10-31T12:25:48;100025.53;;;14.50
66113;BMP280;52893;52.870;5.822;2023-10-31T12:28:19;100038.56;;;14.57
66113;BMP280;52893;52.870;5.822;2023-10-31T12:30:48;100045.66;;;14.61
66113;BMP280;52893;52.870;5.822;2023-10-31T12:33:16;100034.31;;;14.63
66113;BMP280;52893;52.870;5.822;2023-10-31T12:35:43;100042.56;;;14.63
66113;BMP280;52893;52.870;5.822;2023-10-31T12:38:12;100043.78;;;14.65
66113;BMP280;52893;52.870;5.822;2023-10-31T12:40:40;100042.56;;;14.59
66113;BMP280;52893;52.870;5.822;2023-10-31T12:43:08;100017.63;;;14.45
66113;BMP280;52893;52.870;5.822;2023-10-31T12:45:36;100055.06;;;14.60
66113;BMP280;52893;52.870;5.822;2023-10-31T12:48:05;100062.53;;;14.60
66113;BMP280;52893;52.870;5.822;2023-10-31T12:50:34;100059.84;;;14.63
66113;BMP280;52893;52.870;5.822;2023-10-31T12:53:02;100057.94;;;14.67
66113;BMP280;52893;52.870;5.822;2023-10-31T12:55:30;100044.94;;;14.64
66113;BMP280;52893;52.870;5.822;2023-10-31T12:57:58;100061.56;;;14.75
66113;BMP280;52893;52.870;5.822;2023-10-31T13:00:30;100060.34;;;14.72
66113;BMP280;52893;52.870;5.822;2023-10-31T13:03:03;100059.19;;;14.73
66113;BMP280;52893;52.870;5.822;2023-10-31T13:05:31;100026.69;;;14.49
66113;BMP280;52893;52.870;5.822;2023-10-31T13:07:59;100044.88;;;14.61
66113;BMP280;52893;52.870;5.822;2023-10-31T13:10:30;100056.78;;;14.72
66113;BMP280;52893;52.870;5.822;2023-10-31T13:12:58;100063.50;;;14.74
66113;BMP280;52893;52.870;5.822;2023-10-31T13:15:25;100067.09;;;14.78
66113;BMP280;52893;52.870;5.822;2023-10-31T13:17:52;100066.34;;;14.81
66113;BMP280;52893;52.870;5.822;2023-10-31T13:20:21;100057.44;;;14.91
66113;BMP280;52893;52.870;5.822;2023-10-31T13:22:49;100058.78;;;15.05
66113;BMP280;52893;52.870;5.822;2023-10-31T13:25:16;100066.78;;;15.17
66113;BMP280;52893;52.870;5.822;2023-10-31T13:27:44;100059.84;;;15.30
66113;BMP280;52893;52.870;5.822;2023-10-31T13:30:16;100061.06;;;15.36
66113;BMP280;52893;52.870;5.822;2023-10-31T13:32:44;100058.31;;;15.36
66113;BMP280;52893;52.870;5.822;2023-10-31T13:35:12;100044.06;;;15.23
66113;BMP280;52893;52.870;5.822;2023-10-31T13:37:40;100066.56;;;15.36
66113;BMP280;52893;52.870;5.822;2023-10-31T13:40:09;100065.75;;;15.32
66113;BMP280;52893;52.870;5.822;2023-10-31T13:42:37;100068.03;;;15.23
66113;BMP280;52893;52.870;5.822;2023-10-31T13:45:05;100086.47;;;15.22
66113;BMP280;52893;52.870;5.822;2023-10-31T13:47:32;100083.25;;;15.17
66113;BMP280;52893;52.870;5.822;2023-10-31T13:49:59;100079.31;;;15.14
66113;BMP280;52893;52.870;5.822;2023-10-31T13:52:26;100073.03;;;15.14
66113;BMP280;52893;52.870;5.822;2023-10-31T13:54:53;100082.84;;;15.15
66113;BMP280;52893;52.870;5.822;2023-10-31T13:57:22;100084.47;;;15.19
66113;BMP280;52893;52.870;5.822;2023-10-31T13:59:50;100088.84;;;15.24
66113;BMP280;52893;52.870;5.822;2023-10-31T14:02:18;100088.47;;;15.25
66113;BMP280;52893;52.870;5.822;2023-10-31T14:04:45;100070.69;;;15.16
66113;BMP280;52893;52.870;5.822;2023-10-31T14:07:19;100095.09;;;15.21
66113;BMP280;52893;52.870;5.822;2023-10-31T14:09:47;100089.94;;;15.16
66113;BMP280;52893;52.870;5.822;2023-10-31T14:12:15;100109.88;;;15.09